sensor_id;sensor_type;location;lat;lon;timestamp;P1;durP1;ratioP1;P2;durP2;ratioP2
13321;SDS011;6730;46.248;6.930;2023-12-28T00:00:17;1.07;;;0.90;;
13321;SDS011;6730;46.248;6.930;2023-12-28T00:02:43;1.37;;;0.90;;
13321;SDS011;6730;46.248;6.930;2023-12-28T00:05:09;1.13;;;1.00;;
13321;SDS011;6730;46.248;6.930;2023-12-28T00:07:34;0.80;;;0.80;;
13321;SDS011;6730;46.248;6.930;2023-12-28T00:10:01;1.17;;;0.90;;
13321;SDS011;6730;46.248;6.930;2023-12-28T00:12:27;1.40;;;1.00;;
13321;SDS011;6730;46.248;6.930;2023-12-28T00:14:53;1.20;;;0.97;;
13321;SDS011;6730;46.248;6.930;2023-12-28T00:17:19;1.97;;;1.23;;
13321;SDS011;6730;46.248;6.930;2023-12-28T00:19:44;1.27;;;0.80;;
13321;SDS011;6730;46.248;6.930;2023-12-28T00:22:11;1.20;;;1.10;;
13321;SDS011;6730;46.248;6.930;2023-12-28T00:24:36;1.10;;;1.00;;
13321;SDS011;6730;46.248;6.930;2023-12-28T00:27:02;1.93;;;1.13;;
13321;SDS011;6730;46.248;6.930;2023-12-28T00:29:28;1.10;;;1.00;;
13321;SDS011;6730;46.248;6.930;2023-12-28T00:31:54;1.17;;;0.97;;
13321;SDS011;6730;46.248;6.930;2023-12-28T00:34:20;3.83;;;1.13;;
13321;SDS011;6730;46.248;6.930;2023-12-28T00:36:46;1.85;;;1.23;;
13321;SDS011;6730;46.248;6.930;2023-12-28T00:39:11;1.67;;;1.30;;
13321;SDS011;6730;46.248;6.930;2023-12-28T00:41:37;1.33;;;1.10;;
13321;SDS011;6730;46.248;6.930;2023-12-28T00:44:03;1.20;;;1.10;;
13321;SDS011;6730;46.248;6.930;2023-12-28T00:46:31;1.50;;;1.20;;
13321;SDS011;6730;46.248;6.930;2023-12-28T00:48:57;1.37;;;1.13;;
13321;SDS011;6730;46.248;6.930;2023-12-28T00:51:23;0.80;;;0.80;;
13321;SDS011;6730;46.248;6.930;2023-12-28T00:53:48;2.87;;;1.10;;
13321;SDS011;6730;46.248;6.930;2023-12-28T00:56:14;1.20;;;1.10;;
13321;SDS011;6730;46.248;6.930;2023-12-28T00:58:40;2.17;;;1.00;;
13321;SDS011;6730;46.248;6.930;2023-12-28T01:01:06;1.40;;;1.30;;
13321;SDS011;6730;46.248;6.930;2023-12-28T01:03:31;1.53;;;1.10;;
13321;SDS011;6730;46.248;6.930;2023-12-28T01:05:57;1.57;;;1.23;;
13321;SDS011;6730;46.248;6.930;2023-12-28T01:08:22;2.73;;;1.00;;
13321;SDS011;6730;46.248;6.930;2023-12-28T01:10:48;2.93;;;1.13;;
13321;SDS011;6730;46.248;6.930;2023-12-28T01:13:14;1.80;;;1.40;;
13321;SDS011;6730;46.248;6.930;2023-12-28T01:15:40;2.27;;;1.33;;
13321;SDS011;6730;46.248;6.930;2023-12-28T01:18:06;2.03;;;1.20;;
13321;SDS011;6730;46.248;6.930;2023-12-28T01:20:32;1.40;;;1.30;;
13321;SDS011;6730;46.248;6.930;2023-12-28T01:22:57;1.57;;;1.30;;
13321;SDS011;6730;46.248;6.930;2023-12-28T01:25:23;2.43;;;1.20;;
13321;SDS011;6730;46.248;6.930;2023-12-28T01:27:49;1.27;;;1.00;;
13321;SDS011;6730;46.248;6.930;2023-12-28T01:30:14;1.47;;;1.13;;
13321;SDS011;6730;46.248;6.930;2023-12-28T01:32:40;1.60;;;1.30;;
13321;SDS011;6730;46.248;6.930;2023-12-28T01:35:06;1.80;;;1.40;;
13321;SDS011;6730;46.248;6.930;2023-12-28T01:37:32;2.57;;;1.17;;
13321;SDS011;6730;46.248;6.930;2023-12-28T01:39:58;1.70;;;1.50;;
13321;SDS011;6730;46.248;6.930;2023-12-28T01:42:25;1.60;;;1.20;;
13321;SDS011;6730;46.248;6.930;2023-12-28T01:44:51;1.33;;;1.23;;
13321;SDS011;6730;46.248;6.930;2023-12-28T01:47:17;1.40;;;1.30;;
13321;SDS011;6730;46.248;6.930;2023-12-28T01:49:43;2.07;;;1.37;;
13321;SDS011;6730;46.248;6.930;2023-12-28T01:52:09;1.60;;;1.30;;
13321;SDS011;6730;46.248;6.930;2023-12-28T01:54:34;1.77;;;1.20;;
13321;SDS011;6730;46.248;6.930;2023-12-28T01:57:02;2.70;;;1.17;;
13321;SDS011;6730;46.248;6.930;2023-12-28T01:59:29;1.40;;;1.30;;
13321;SDS011;6730;46.248;6.930;2023-12-28T02:01:56;1.60;;;1.30;;
13321;SDS011;6730;46.248;6.930;2023-12-28T02:04:23;1.30;;;1.20;;
13321;SDS011;6730;46.248;6.930;2023-12-28T02:06:56;1.70;;;1.07;;
13321;SDS011;6730;46.248;6.930;2023-12-28T02:09:23;1.37;;;1.07;;
13321;SDS011;6730;46.248;6.930;2023-12-28T02:11:49;1.47;;;1.33;;
13321;SDS011;6730;46.248;6.930;2023-12-28T02:14:15;1.10;;;1.00;;
13321;SDS011;6730;46.248;6.930;2023-12-28T02:16:44;1.60;;;1.20;;
13321;SDS011;6730;46.248;6.930;2023-12-28T02:19:18;1.10;;;1.00;;
13321;SDS011;6730;46.248;6.930;2023-12-28T02:21:50;1.27;;;1.13;;
13321;SDS011;6730;46.248;6.930;2023-12-28T02:24:16;1.47;;;1.17;;
13321;SDS011;6730;46.248;6.930;2023-12-28T02:26:41;1.83;;;1.07;;
13321;SDS011;6730;46.248;6.930;2023-12-28T02:29:07;1.00;;;0.90;;
13321;SDS011;6730;46.248;6.930;2023-12-28T02:31:35;2.67;;;1.10;;
13321;SDS011;6730;46.248;6.930;2023-12-28T02:34:15;1.40;;;1.10;;
13321;SDS011;6730;46.248;6.930;2023-12-28T02:36:47;1.00;;;0.90;;
13321;SDS011;6730;46.248;6.930;2023-12-28T02:39:14;0.80;;;0.80;;
13321;SDS011;6730;46.248;6.930;2023-12-28T02:41:44;0.77;;;0.70;;
13321;SDS011;6730;46.248;6.930;2023-12-28T02:44:11;1.23;;;1.00;;
13321;SDS011;6730;46.248;6.930;2023-12-28T02:46:37;1.10;;;1.00;;
13321;SDS011;6730;46.248;6.930;2023-12-28T02:49:03;1.80;;;1.10;;
13321;SDS011;6730;46.248;6.930;2023-12-28T02:51:28;3.00;;;1.23;;
13321;SDS011;6730;46.248;6.930;2023-12-28T02:53:54;0.90;;;0.80;;
13321;SDS011;6730;46.248;6.930;2023-12-28T02:56:20;2.33;;;0.80;;
13321;SDS011;6730;46.248;6.930;2023-12-28T02:58:45;1.13;;;0.73;;
13321;SDS011;6730;46.248;6.930;2023-12-28T03:01:11;1.23;;;0.70;;
13321;SDS011;6730;46.248;6.930;2023-12-28T03:03:37;0.80;;;0.80;;
13321;SDS011;6730;46.248;6.930;2023-12-28T03:06:03;3.20;;;0.90;;
13321;SDS011;6730;46.248;6.930;2023-12-28T03:08:28;1.07;;;0.90;;
13321;SDS011;6730;46.248;6.930;2023-12-28T03:10:54;0.90;;;0.80;;
13321;SDS011;6730;46.248;6.930;2023-12-28T03:13:20;1.00;;;0.90;;
13321;SDS011;6730;46.248;6.930;2023-12-28T03:15:46;2.30;;;1.33;;
13321;SDS011;6730;46.248;6.930;2023-12-28T03:18:11;1.20;;;1.03;;
13321;SDS011;6730;46.248;6.930;2023-12-28T03:20:37;1.77;;;1.10;;
13321;SDS011;6730;46.248;6.930;2023-12-28T03:23:03;1.33;;;1.23;;
13321;SDS011;6730;46.248;6.930;2023-12-28T03:25:29;0.97;;;0.87;;
13321;SDS011;6730;46.248;6.930;2023-12-28T03:27:55;1.47;;;1.10;;
13321;SDS011;6730;46.248;6.930;2023-12-28T03:30:20;2.70;;;1.40;;
13321;SDS011;6730;46.248;6.930;2023-12-28T03:32:46;1.70;;;1.13;;
13321;SDS011;6730;46.248;6.930;2023-12-28T03:35:12;2.33;;;1.30;;
13321;SDS011;6730;46.248;6.930;2023-12-28T03:37:37;1.33;;;1.20;;
13321;SDS011;6730;46.248;6.930;2023-12-28T03:40:03;1.47;;;1.20;;
13321;SDS011;6730;46.248;6.930;2023-12-28T03:42:30;2.73;;;1.40;;
13321;SDS011;6730;46.248;6.930;2023-12-28T03:44:55;1.47;;;1.30;;
13321;SDS011;6730;46.248;6.930;2023-12-28T03:47:21;1.83;;;1.50;;
13321;SDS011;6730;46.248;6.930;2023-12-28T03:49:48;1.33;;;1.20;;
13321;SDS011;6730;46.248;6.930;2023-12-28T03:52:13;1.40;;;1.30;;
13321;SDS011;6730;46.248;6.930;2023-12-28T03:54:39;2.50;;;1.50;;
13321;SDS011;6730;46.248;6.930;2023-12-28T03:57:04;2.00;;;1.27;;
13321;SDS011;6730;46.248;6.930;2023-12-28T03:59:30;2.53;;;1.50;;
13321;SDS011;6730;46.248;6.930;2023-12-28T04:01:56;1.43;;;1.27;;
13321;SDS011;6730;46.248;6.930;2023-12-28T04:04:22;1.20;;;1.10;;
13321;SDS011;6730;46.248;6.930;2023-12-28T04:06:47;1.90;;;1.30;;
13321;SDS011;6730;46.248;6.930;2023-12-28T04:09:13;2.53;;;1.30;;
13321;SDS011;6730;46.248;6.930;2023-12-28T04:11:39;2.60;;;1.33;;
13321;SDS011;6730;46.248;6.930;2023-12-28T04:14:05;2.27;;;1.50;;
13321;SDS011;6730;46.248;6.930;2023-12-28T04:16:31;1.83;;;1.27;;
13321;SDS011;6730;46.248;6.930;2023-12-28T04:18:56;1.10;;;1.00;;
13321;SDS011;6730;46.248;6.930;2023-12-28T04:21:22;1.23;;;1.10;;
13321;SDS011;6730;46.248;6.930;2023-12-28T04:23:48;2.70;;;1.10;;
13321;SDS011;6730;46.248;6.930;2023-12-28T04:26:13;1.00;;;0.90;;
13321;SDS011;6730;46.248;6.930;2023-12-28T04:28:39;2.40;;;1.00;;
13321;SDS011;6730;46.248;6.930;2023-12-28T04:31:05;1.00;;;0.90;;
13321;SDS011;6730;46.248;6.930;2023-12-28T04:33:31;1.67;;;1.20;;
13321;SDS011;6730;46.248;6.930;2023-12-28T04:36:00;2.20;;;0.90;;
13321;SDS011;6730;46.248;6.930;2023-12-28T04:38:28;1.73;;;1.10;;
13321;SDS011;6730;46.248;6.930;2023-12-28T04:40:54;1.57;;;1.30;;
13321;SDS011;6730;46.248;6.930;2023-12-28T04:43:19;1.20;;;1.10;;
13321;SDS011;6730;46.248;6.930;2023-12-28T04:45:45;1.37;;;1.10;;
13321;SDS011;6730;46.248;6.930;2023-12-28T04:48:11;1.70;;;1.00;;
13321;SDS011;6730;46.248;6.930;2023-12-28T04:50:36;1.30;;;1.20;;
13321;SDS011;6730;46.248;6.930;2023-12-28T04:53:02;1.20;;;0.97;;
13321;SDS011;6730;46.248;6.930;2023-12-28T04:55:28;1.27;;;1.00;;
13321;SDS011;6730;46.248;6.930;2023-12-28T04:57:54;2.30;;;0.97;;
13321;SDS011;6730;46.248;6.930;2023-12-28T05:00:19;1.17;;;1.00;;
13321;SDS011;6730;46.248;6.930;2023-12-28T05:02:45;2.07;;;1.10;;
13321;SDS011;6730;46.248;6.930;2023-12-28T05:05:14;1.97;;;1.20;;
13321;SDS011;6730;46.248;6.930;2023-12-28T05:07:40;1.33;;;1.10;;
13321;SDS011;6730;46.248;6.930;2023-12-28T05:10:05;1.10;;;1.00;;
13321;SDS011;6730;46.248;6.930;2023-12-28T05:12:32;1.60;;;1.00;;
13321;SDS011;6730;46.248;6.930;2023-12-28T05:14:58;1.30;;;1.00;;
13321;SDS011;6730;46.248;6.930;2023-12-28T05:17:23;1.40;;;1.10;;
13321;SDS011;6730;46.248;6.930;2023-12-28T05:19:49;1.13;;;1.00;;
13321;SDS011;6730;46.248;6.930;2023-12-28T05:22:15;1.77;;;0.97;;
13321;SDS011;6730;46.248;6.930;2023-12-28T05:24:40;1.27;;;1.10;;
13321;SDS011;6730;46.248;6.930;2023-12-28T05:27:06;1.70;;;1.03;;
13321;SDS011;6730;46.248;6.930;2023-12-28T05:29:31;3.90;;;1.20;;
13321;SDS011;6730;46.248;6.930;2023-12-28T05:31:57;1.53;;;1.17;;
13321;SDS011;6730;46.248;6.930;2023-12-28T05:34:23;2.70;;;1.50;;
13321;SDS011;6730;46.248;6.930;2023-12-28T05:36:49;1.23;;;1.10;;
13321;SDS011;6730;46.248;6.930;2023-12-28T05:39:14;1.73;;;1.30;;
13321;SDS011;6730;46.248;6.930;2023-12-28T05:41:40;1.30;;;1.20;;
13321;SDS011;6730;46.248;6.930;2023-12-28T05:44:06;1.53;;;1.30;;
13321;SDS011;6730;46.248;6.930;2023-12-28T05:46:31;1.47;;;1.20;;
13321;SDS011;6730;46.248;6.930;2023-12-28T05:48:57;1.40;;;1.30;;
13321;SDS011;6730;46.248;6.930;2023-12-28T05:51:23;1.50;;;1.13;;
13321;SDS011;6730;46.248;6.930;2023-12-28T05:53:49;1.27;;;1.03;;
13321;SDS011;6730;46.248;6.930;2023-12-28T05:56:14;1.73;;;1.10;;
13321;SDS011;6730;46.248;6.930;2023-12-28T05:58:40;1.67;;;1.20;;
13321;SDS011;6730;46.248;6.930;2023-12-28T06:01:06;1.27;;;1.10;;
13321;SDS011;6730;46.248;6.930;2023-12-28T06:03:32;1.27;;;1.00;;
13321;SDS011;6730;46.248;6.930;2023-12-28T06:05:57;1.87;;;1.30;;
13321;SDS011;6730;46.248;6.930;2023-12-28T06:08:23;3.50;;;1.43;;
13321;SDS011;6730;46.248;6.930;2023-12-28T06:10:49;1.47;;;1.20;;
13321;SDS011;6730;46.248;6.930;2023-12-28T06:13:14;1.40;;;0.97;;
13321;SDS011;6730;46.248;6.930;2023-12-28T06:15:40;1.40;;;1.00;;
13321;SDS011;6730;46.248;6.930;2023-12-28T06:18:06;0.90;;;0.80;;
13321;SDS011;6730;46.248;6.930;2023-12-28T06:20:32;1.40;;;1.13;;
13321;SDS011;6730;46.248;6.930;2023-12-28T06:22:57;1.53;;;1.30;;
13321;SDS011;6730;46.248;6.930;2023-12-28T06:25:23;1.53;;;1.13;;
13321;SDS011;6730;46.248;6.930;2023-12-28T06:27:49;1.70;;;1.20;;
13321;SDS011;6730;46.248;6.930;2023-12-28T06:30:14;1.10;;;1.00;;
13321;SDS011;6730;46.248;6.930;2023-12-28T06:32:40;1.20;;;1.00;;
13321;SDS011;6730;46.248;6.930;2023-12-28T06:35:06;1.17;;;1.07;;
13321;SDS011;6730;46.248;6.930;2023-12-28T06:37:32;0.80;;;0.80;;
13321;SDS011;6730;46.248;6.930;2023-12-28T06:39:58;2.87;;;1.10;;
13321;SDS011;6730;46.248;6.930;2023-12-28T06:42:23;1.40;;;1.00;;
13321;SDS011;6730;46.248;6.930;2023-12-28T06:44:49;0.80;;;0.80;;
13321;SDS011;6730;46.248;6.930;2023-12-28T06:47:14;1.20;;;0.93;;
13321;SDS011;6730;46.248;6.930;2023-12-28T06:49:40;1.10;;;1.00;;
13321;SDS011;6730;46.248;6.930;2023-12-28T06:52:06;1.00;;;0.90;;
13321;SDS011;6730;46.248;6.930;2023-12-28T06:54:31;0.93;;;0.90;;
13321;SDS011;6730;46.248;6.930;2023-12-28T06:56:57;2.57;;;1.03;;
13321;SDS011;6730;46.248;6.930;2023-12-28T06:59:23;1.90;;;1.00;;
13321;SDS011;6730;46.248;6.930;2023-12-28T07:01:48;1.00;;;0.80;;
13321;SDS011;6730;46.248;6.930;2023-12-28T07:04:14;0.80;;;0.80;;
13321;SDS011;6730;46.248;6.930;2023-12-28T07:06:40;1.10;;;0.70;;
13321;SDS011;6730;46.248;6.930;2023-12-28T07:09:06;1.10;;;0.93;;
13321;SDS011;6730;46.248;6.930;2023-12-28T07:11:31;1.30;;;0.83;;
13321;SDS011;6730;46.248;6.930;2023-12-28T07:13:57;1.87;;;1.20;;
13321;SDS011;6730;46.248;6.930;2023-12-28T07:16:23;1.37;;;1.10;;
13321;SDS011;6730;46.248;6.930;2023-12-28T07:18:48;2.10;;;0.97;;
13321;SDS011;6730;46.248;6.930;2023-12-28T07:21:14;1.83;;;0.90;;
13321;SDS011;6730;46.248;6.930;2023-12-28T07:23:40;1.07;;;0.87;;
13321;SDS011;6730;46.248;6.930;2023-12-28T07:26:05;0.90;;;0.80;;
13321;SDS011;6730;46.248;6.930;2023-12-28T07:28:31;1.20;;;0.87;;
13321;SDS011;6730;46.248;6.930;2023-12-28T07:30:57;1.80;;;1.10;;
13321;SDS011;6730;46.248;6.930;2023-12-28T07:33:22;0.97;;;0.90;;
13321;SDS011;6730;46.248;6.930;2023-12-28T07:35:48;1.10;;;0.73;;
13321;SDS011;6730;46.248;6.930;2023-12-28T07:38:14;1.00;;;0.80;;
13321;SDS011;6730;46.248;6.930;2023-12-28T07:40:40;1.17;;;0.80;;
13321;SDS011;6730;46.248;6.930;2023-12-28T07:43:06;1.10;;;1.00;;
13321;SDS011;6730;46.248;6.930;2023-12-28T07:45:31;0.83;;;0.83;;
13321;SDS011;6730;46.248;6.930;2023-12-28T07:48:00;1.30;;;1.00;;
13321;SDS011;6730;46.248;6.930;2023-12-28T07:50:26;1.00;;;0.90;;
13321;SDS011;6730;46.248;6.930;2023-12-28T07:52:52;0.80;;;0.70;;
13321;SDS011;6730;46.248;6.930;2023-12-28T07:55:19;1.33;;;1.00;;
13321;SDS011;6730;46.248;6.930;2023-12-28T07:57:44;1.10;;;1.00;;
13321;SDS011;6730;46.248;6.930;2023-12-28T08:00:10;1.17;;;0.83;;
13321;SDS011;6730;46.248;6.930;2023-12-28T08:02:36;1.00;;;0.80;;
13321;SDS011;6730;46.248;6.930;2023-12-28T08:05:02;1.93;;;1.20;;
13321;SDS011;6730;46.248;6.930;2023-12-28T08:07:29;1.37;;;1.00;;
13321;SDS011;6730;46.248;6.930;2023-12-28T08:09:54;1.07;;;0.90;;
13321;SDS011;6730;46.248;6.930;2023-12-28T08:12:20;1.07;;;0.97;;
13321;SDS011;6730;46.248;6.930;2023-12-28T08:14:46;1.10;;;0.90;;
13321;SDS011;6730;46.248;6.930;2023-12-28T08:17:12;1.87;;;1.00;;
13321;SDS011;6730;46.248;6.930;2023-12-28T08:19:37;1.73;;;1.00;;
13321;SDS011;6730;46.248;6.930;2023-12-28T08:22:03;1.03;;;0.80;;
13321;SDS011;6730;46.248;6.930;2023-12-28T08:24:29;1.57;;;1.10;;
13321;SDS011;6730;46.248;6.930;2023-12-28T08:26:55;1.20;;;1.00;;
13321;SDS011;6730;46.248;6.930;2023-12-28T08:29:24;3.13;;;0.90;;
13321;SDS011;6730;46.248;6.930;2023-12-28T08:31:50;1.10;;;0.80;;
13321;SDS011;6730;46.248;6.930;2023-12-28T08:34:16;1.13;;;0.90;;
13321;SDS011;6730;46.248;6.930;2023-12-28T08:36:41;1.27;;;0.80;;
13321;SDS011;6730;46.248;6.930;2023-12-28T08:39:07;1.10;;;1.00;;
13321;SDS011;6730;46.248;6.930;2023-12-28T08:41:33;1.17;;;1.00;;
13321;SDS011;6730;46.248;6.930;2023-12-28T08:43:58;1.43;;;1.00;;
13321;SDS011;6730;46.248;6.930;2023-12-28T08:46:24;1.70;;;1.00;;
13321;SDS011;6730;46.248;6.930;2023-12-28T08:48:50;1.10;;;1.00;;
13321;SDS011;6730;46.248;6.930;2023-12-28T08:51:16;3.27;;;1.17;;
13321;SDS011;6730;46.248;6.930;2023-12-28T08:53:41;1.15;;;0.90;;
13321;SDS011;6730;46.248;6.930;2023-12-28T08:56:20;0.95;;;0.88;;
13321;SDS011;6730;46.248;6.930;2023-12-28T08:58:46;0.90;;;0.90;;
13321;SDS011;6730;46.248;6.930;2023-12-28T09:01:19;1.10;;;1.00;;
13321;SDS011;6730;46.248;6.930;2023-12-28T09:03:47;1.40;;;0.77;;
13321;SDS011;6730;46.248;6.930;2023-12-28T09:06:14;1.17;;;0.93;;
13321;SDS011;6730;46.248;6.930;2023-12-28T09:08:43;1.35;;;1.17;;
13321;SDS011;6730;46.248;6.930;2023-12-28T09:11:10;1.40;;;1.00;;
13321;SDS011;6730;46.248;6.930;2023-12-28T09:13:36;1.30;;;1.20;;
13321;SDS011;6730;46.248;6.930;2023-12-28T09:16:03;1.35;;;0.98;;
13321;SDS011;6730;46.248;6.930;2023-12-28T09:18:29;1.95;;;0.93;;
13321;SDS011;6730;46.248;6.930;2023-12-28T09:20:55;1.65;;;0.93;;
13321;SDS011;6730;46.248;6.930;2023-12-28T09:23:20;1.67;;;1.33;;
13321;SDS011;6730;46.248;6.930;2023-12-28T09:25:46;1.38;;;1.23;;
13321;SDS011;6730;46.248;6.930;2023-12-28T09:28:12;1.83;;;1.30;;
13321;SDS011;6730;46.248;6.930;2023-12-28T09:30:38;1.80;;;1.35;;
13321;SDS011;6730;46.248;6.930;2023-12-28T09:33:04;2.00;;;1.55;;
13321;SDS011;6730;46.248;6.930;2023-12-28T09:35:29;1.52;;;1.42;;
13321;SDS011;6730;46.248;6.930;2023-12-28T09:37:56;1.20;;;1.10;;
13321;SDS011;6730;46.248;6.930;2023-12-28T09:40:22;2.03;;;1.50;;
13321;SDS011;6730;46.248;6.930;2023-12-28T09:42:51;1.70;;;1.25;;
13321;SDS011;6730;46.248;6.930;2023-12-28T09:45:37;2.25;;;1.42;;
13321;SDS011;6730;46.248;6.930;2023-12-28T09:48:03;1.52;;;1.40;;
13321;SDS011;6730;46.248;6.930;2023-12-28T09:50:29;1.95;;;1.60;;
13321;SDS011;6730;46.248;6.930;2023-12-28T09:52:55;2.35;;;1.67;;
13321;SDS011;6730;46.248;6.930;2023-12-28T09:55:21;2.08;;;1.63;;
13321;SDS011;6730;46.248;6.930;2023-12-28T09:57:47;2.13;;;1.60;;
13321;SDS011;6730;46.248;6.930;2023-12-28T10:00:13;2.92;;;1.45;;
13321;SDS011;6730;46.248;6.930;2023-12-28T10:02:45;2.85;;;1.80;;
13321;SDS011;6730;46.248;6.930;2023-12-28T10:05:14;1.92;;;1.40;;
13321;SDS011;6730;46.248;6.930;2023-12-28T10:07:41;1.70;;;1.30;;
13321;SDS011;6730;46.248;6.930;2023-12-28T10:10:10;2.35;;;1.38;;
13321;SDS011;6730;46.248;6.930;2023-12-28T10:12:36;1.48;;;1.30;;
13321;SDS011;6730;46.248;6.930;2023-12-28T10:15:05;2.45;;;1.17;;
13321;SDS011;6730;46.248;6.930;2023-12-28T10:17:34;1.48;;;1.10;;
13321;SDS011;6730;46.248;6.930;2023-12-28T10:20:01;1.30;;;1.20;;
13321;SDS011;6730;46.248;6.930;2023-12-28T10:22:30;1.63;;;1.27;;
13321;SDS011;6730;46.248;6.930;2023-12-28T10:24:57;2.67;;;1.27;;
13321;SDS011;6730;46.248;6.930;2023-12-28T10:27:24;3.42;;;1.08;;
13321;SDS011;6730;46.248;6.930;2023-12-28T10:29:53;2.70;;;2.15;;
13321;SDS011;6730;46.248;6.930;2023-12-28T10:32:22;2.55;;;2.08;;
13321;SDS011;6730;46.248;6.930;2023-12-28T10:34:51;2.28;;;2.00;;
13321;SDS011;6730;46.248;6.930;2023-12-28T10:37:18;2.95;;;2.40;;
13321;SDS011;6730;46.248;6.930;2023-12-28T10:39:47;4.13;;;2.42;;
13321;SDS011;6730;46.248;6.930;2023-12-28T10:42:16;2.38;;;1.98;;
13321;SDS011;6730;46.248;6.930;2023-12-28T10:44:49;3.88;;;1.98;;
13321;SDS011;6730;46.248;6.930;2023-12-28T10:47:20;4.05;;;2.17;;
13321;SDS011;6730;46.248;6.930;2023-12-28T10:49:51;3.00;;;2.17;;
13321;SDS011;6730;46.248;6.930;2023-12-28T10:52:20;3.08;;;2.45;;
13321;SDS011;6730;46.248;6.930;2023-12-28T10:54:57;2.88;;;2.20;;
13321;SDS011;6730;46.248;6.930;2023-12-28T10:57:52;2.65;;;2.10;;
13321;SDS011;6730;46.248;6.930;2023-12-28T11:00:25;2.45;;;1.98;;
13321;SDS011;6730;46.248;6.930;2023-12-28T11:02:56;2.78;;;1.90;;
13321;SDS011;6730;46.248;6.930;2023-12-28T11:05:27;2.78;;;1.80;;
13321;SDS011;6730;46.248;6.930;2023-12-28T11:07:55;4.63;;;2.95;;
13321;SDS011;6730;46.248;6.930;2023-12-28T11:10:23;4.18;;;2.40;;
13321;SDS011;6730;46.248;6.930;2023-12-28T11:12:52;2.30;;;1.80;;
13321;SDS011;6730;46.248;6.930;2023-12-28T11:15:19;2.13;;;1.70;;
13321;SDS011;6730;46.248;6.930;2023-12-28T11:17:46;3.83;;;1.80;;
13321;SDS011;6730;46.248;6.930;2023-12-28T11:20:11;1.92;;;1.55;;
13321;SDS011;6730;46.248;6.930;2023-12-28T11:22:38;3.40;;;1.85;;
13321;SDS011;6730;46.248;6.930;2023-12-28T11:25:05;3.03;;;2.17;;
13321;SDS011;6730;46.248;6.930;2023-12-28T11:27:34;2.35;;;1.88;;
13321;SDS011;6730;46.248;6.930;2023-12-28T11:30:01;2.63;;;2.22;;
13321;SDS011;6730;46.248;6.930;2023-12-28T11:32:33;3.10;;;2.40;;
13321;SDS011;6730;46.248;6.930;2023-12-28T11:35:00;2.75;;;1.80;;
13321;SDS011;6730;46.248;6.930;2023-12-28T11:37:26;2.47;;;1.50;;
13321;SDS011;6730;46.248;6.930;2023-12-28T11:39:54;1.88;;;1.42;;
13321;SDS011;6730;46.248;6.930;2023-12-28T11:42:23;1.90;;;1.50;;
13321;SDS011;6730;46.248;6.930;2023-12-28T11:44:53;2.92;;;1.85;;
13321;SDS011;6730;46.248;6.930;2023-12-28T11:47:24;3.85;;;1.80;;
13321;SDS011;6730;46.248;6.930;2023-12-28T11:49:50;2.08;;;1.77;;
13321;SDS011;6730;46.248;6.930;2023-12-28T11:52:25;1.33;;;1.23;;
13321;SDS011;6730;46.248;6.930;2023-12-28T11:54:53;1.98;;;1.52;;
13321;SDS011;6730;46.248;6.930;2023-12-28T11:57:19;2.75;;;1.80;;
13321;SDS011;6730;46.248;6.930;2023-12-28T11:59:45;3.45;;;1.70;;
13321;SDS011;6730;46.248;6.930;2023-12-28T12:02:11;2.42;;;1.52;;
13321;SDS011;6730;46.248;6.930;2023-12-28T12:04:39;3.28;;;1.40;;
13321;SDS011;6730;46.248;6.930;2023-12-28T12:07:04;2.15;;;1.38;;
13321;SDS011;6730;46.248;6.930;2023-12-28T12:09:30;1.63;;;1.40;;
13321;SDS011;6730;46.248;6.930;2023-12-28T12:12:03;1.98;;;1.35;;
13321;SDS011;6730;46.248;6.930;2023-12-28T12:14:29;1.77;;;1.50;;
13321;SDS011;6730;46.248;6.930;2023-12-28T12:16:58;2.65;;;1.42;;
13321;SDS011;6730;46.248;6.930;2023-12-28T12:19:25;1.70;;;1.30;;
13321;SDS011;6730;46.248;6.930;2023-12-28T12:21:54;1.92;;;1.27;;
13321;SDS011;6730;46.248;6.930;2023-12-28T12:24:21;1.17;;;1.08;;
13321;SDS011;6730;46.248;6.930;2023-12-28T12:26:48;1.25;;;1.08;;
13321;SDS011;6730;46.248;6.930;2023-12-28T12:29:15;1.65;;;1.15;;
13321;SDS011;6730;46.248;6.930;2023-12-28T12:31:40;1.48;;;1.30;;
13321;SDS011;6730;46.248;6.930;2023-12-28T12:34:08;1.85;;;1.63;;
13321;SDS011;6730;46.248;6.930;2023-12-28T12:36:35;1.23;;;1.10;;
13321;SDS011;6730;46.248;6.930;2023-12-28T12:39:01;2.15;;;1.25;;
13321;SDS011;6730;46.248;6.930;2023-12-28T12:41:30;2.45;;;1.27;;
13321;SDS011;6730;46.248;6.930;2023-12-28T12:43:55;1.52;;;1.10;;
13321;SDS011;6730;46.248;6.930;2023-12-28T12:46:24;1.10;;;1.00;;
13321;SDS011;6730;46.248;6.930;2023-12-28T12:48:56;2.03;;;1.10;;
13321;SDS011;6730;46.248;6.930;2023-12-28T12:51:29;1.13;;;1.00;;
13321;SDS011;6730;46.248;6.930;2023-12-28T12:53:58;1.85;;;1.10;;
13321;SDS011;6730;46.248;6.930;2023-12-28T12:56:27;1.75;;;1.20;;
13321;SDS011;6730;46.248;6.930;2023-12-28T12:58:54;2.35;;;1.10;;
13321;SDS011;6730;46.248;6.930;2023-12-28T13:01:20;2.10;;;1.48;;
13321;SDS011;6730;46.248;6.930;2023-12-28T13:03:46;2.72;;;1.70;;
13321;SDS011;6730;46.248;6.930;2023-12-28T13:06:12;2.38;;;1.60;;
13321;SDS011;6730;46.248;6.930;2023-12-28T13:08:38;4.60;;;1.70;;
13321;SDS011;6730;46.248;6.930;2023-12-28T13:11:04;1.95;;;1.52;;
13321;SDS011;6730;46.248;6.930;2023-12-28T13:13:32;1.58;;;1.33;;
13321;SDS011;6730;46.248;6.930;2023-12-28T13:15:58;3.85;;;1.40;;
13321;SDS011;6730;46.248;6.930;2023-12-28T13:18:24;1.52;;;1.20;;
13321;SDS011;6730;46.248;6.930;2023-12-28T13:20:50;1.52;;;1.15;;
13321;SDS011;6730;46.248;6.930;2023-12-28T13:23:15;1.45;;;1.13;;
13321;SDS011;6730;46.248;6.930;2023-12-28T13:25:41;1.95;;;1.45;;
13321;SDS011;6730;46.248;6.930;2023-12-28T13:28:08;1.48;;;1.27;;
13321;SDS011;6730;46.248;6.930;2023-12-28T13:30:34;1.30;;;1.10;;
13321;SDS011;6730;46.248;6.930;2023-12-28T13:33:01;1.05;;;0.95;;
13321;SDS011;6730;46.248;6.930;2023-12-28T13:35:28;1.80;;;1.30;;
13321;SDS011;6730;46.248;6.930;2023-12-28T13:37:54;3.60;;;1.20;;
13321;SDS011;6730;46.248;6.930;2023-12-28T13:40:20;2.88;;;2.00;;
13321;SDS011;6730;46.248;6.930;2023-12-28T13:42:46;2.30;;;1.65;;
13321;SDS011;6730;46.248;6.930;2023-12-28T13:45:15;1.42;;;1.30;;
13321;SDS011;6730;46.248;6.930;2023-12-28T13:47:40;2.97;;;2.13;;
13321;SDS011;6730;46.248;6.930;2023-12-28T13:50:06;9.73;;;4.90;;
13321;SDS011;6730;46.248;6.930;2023-12-28T13:52:32;2.47;;;1.67;;
13321;SDS011;6730;46.248;6.930;2023-12-28T13:54:58;4.70;;;2.85;;
13321;SDS011;6730;46.248;6.930;2023-12-28T13:57:24;3.00;;;1.70;;
13321;SDS011;6730;46.248;6.930;2023-12-28T13:59:49;4.30;;;2.33;;
13321;SDS011;6730;46.248;6.930;2023-12-28T14:02:15;6.07;;;2.00;;
13321;SDS011;6730;46.248;6.930;2023-12-28T14:04:41;17.20;;;9.05;;
13321;SDS011;6730;46.248;6.930;2023-12-28T14:07:06;10.15;;;6.35;;
13321;SDS011;6730;46.248;6.930;2023-12-28T14:09:32;6.35;;;3.08;;
13321;SDS011;6730;46.248;6.930;2023-12-28T14:11:58;2.63;;;1.60;;
13321;SDS011;6730;46.248;6.930;2023-12-28T14:14:24;3.50;;;2.72;;
13321;SDS011;6730;46.248;6.930;2023-12-28T14:16:50;3.90;;;2.60;;
13321;SDS011;6730;46.248;6.930;2023-12-28T14:19:15;5.15;;;3.58;;
13321;SDS011;6730;46.248;6.930;2023-12-28T14:21:41;3.15;;;1.80;;
13321;SDS011;6730;46.248;6.930;2023-12-28T14:24:08;2.42;;;1.77;;
13321;SDS011;6730;46.248;6.930;2023-12-28T14:26:40;3.50;;;2.15;;
13321;SDS011;6730;46.248;6.930;2023-12-28T14:29:08;1.85;;;1.50;;
13321;SDS011;6730;46.248;6.930;2023-12-28T14:31:34;2.22;;;1.65;;
13321;SDS011;6730;46.248;6.930;2023-12-28T14:34:00;3.70;;;2.33;;
13321;SDS011;6730;46.248;6.930;2023-12-28T14:36:34;3.53;;;2.22;;
13321;SDS011;6730;46.248;6.930;2023-12-28T14:39:03;2.55;;;1.75;;
13321;SDS011;6730;46.248;6.930;2023-12-28T14:41:36;2.08;;;1.70;;
13321;SDS011;6730;46.248;6.930;2023-12-28T14:44:02;2.30;;;1.80;;
13321;SDS011;6730;46.248;6.930;2023-12-28T14:46:30;1.92;;;1.45;;
13321;SDS011;6730;46.248;6.930;2023-12-28T14:48:55;1.60;;;1.50;;
13321;SDS011;6730;46.248;6.930;2023-12-28T14:51:22;1.75;;;1.42;;
13321;SDS011;6730;46.248;6.930;2023-12-28T14:53:50;2.20;;;1.60;;
13321;SDS011;6730;46.248;6.930;2023-12-28T14:56:19;2.05;;;1.80;;